sensor_id;sensor_type;location;lat;lon;timestamp;temperature;humidity
20744;DHT22;56303;52.160;-0.428;2023-05-14T00:02:07;12.50;99.90
20744;DHT22;56303;52.160;-0.428;2023-05-14T00:04:34;12.40;99.90
20744;DHT22;56303;52.160;-0.428;2023-05-14T00:07:01;12.30;99.90
20744;DHT22;56303;52.160;-0.428;2023-05-14T00:09:28;12.00;99.90
20744;DHT22;56303;52.160;-0.428;2023-05-14T00:11:58;12.00;99.90
20744;DHT22;56303;52.160;-0.428;2023-05-14T00:14:25;11.80;99.90
20744;DHT22;56303;52.160;-0.428;2023-05-14T00:16:52;11.80;99.90
20744;DHT22;56303;52.160;-0.428;2023-05-14T00:19:19;11.80;99.90
20744;DHT22;56303;52.160;-0.428;2023-05-14T00:21:46;11.80;99.90
20744;DHT22;56303;52.160;-0.428;2023-05-14T00:24:13;11.80;99.90
20744;DHT22;56303;52.160;-0.428;2023-05-14T00:26:40;11.60;99.90
20744;DHT22;56303;52.160;-0.428;2023-05-14T00:29:07;11.60;99.90
20744;DHT22;56303;52.160;-0.428;2023-05-14T00:31:34;11.70;99.90
20744;DHT22;56303;52.160;-0.428;2023-05-14T00:34:01;11.60;99.90
20744;DHT22;56303;52.160;-0.428;2023-05-14T00:36:28;11.50;99.90
20744;DHT22;56303;52.160;-0.428;2023-05-14T00:38:54;11.40;99.90
20744;DHT22;56303;52.160;-0.428;2023-05-14T00:41:22;11.30;99.90
20744;DHT22;56303;52.160;-0.428;2023-05-14T00:43:48;11.20;99.90
20744;DHT22;56303;52.160;-0.428;2023-05-14T00:46:15;11.30;99.90
20744;DHT22;56303;52.160;-0.428;2023-05-14T00:48:43;11.40;99.90
20744;DHT22;56303;52.160;-0.428;2023-05-14T00:51:10;11.60;99.90
20744;DHT22;56303;52.160;-0.428;2023-05-14T00:53:37;11.80;99.90
20744;DHT22;56303;52.160;-0.428;2023-05-14T00:56:05;12.10;99.90
20744;DHT22;56303;52.160;-0.428;2023-05-14T00:58:32;11.90;99.90
20744;DHT22;56303;52.160;-0.428;2023-05-14T01:00:59;11.90;99.90
20744;DHT22;56303;52.160;-0.428;2023-05-14T01:03:26;12.10;99.90
20744;DHT22;56303;52.160;-0.428;2023-05-14T01:06:19;12.10;99.90
20744;DHT22;56303;52.160;-0.428;2023-05-14T01:11:48;11.60;99.90
20744;DHT22;56303;52.160;-0.428;2023-05-14T01:14:23;11.20;99.90
20744;DHT22;56303;52.160;-0.428;2023-05-14T01:16:57;11.40;99.90
20744;DHT22;56303;52.160;-0.428;2023-05-14T01:19:40;11.50;99.90
20744;DHT22;56303;52.160;-0.428;2023-05-14T01:22:07;11.40;99.90
20744;DHT22;56303;52.160;-0.428;2023-05-14T01:24:34;11.30;99.90
20744;DHT22;56303;52.160;-0.428;2023-05-14T01:27:18;11.40;99.90
20744;DHT22;56303;52.160;-0.428;2023-05-14T01:30:12;11.50;99.90
20744;DHT22;56303;52.160;-0.428;2023-05-14T01:32:45;11.40;99.90
20744;DHT22;56303;52.160;-0.428;2023-05-14T01:35:13;11.60;99.90
20744;DHT22;56303;52.160;-0.428;2023-05-14T01:37:40;10.60;99.90
20744;DHT22;56303;52.160;-0.428;2023-05-14T01:40:08;11.60;99.90
20744;DHT22;56303;52.160;-0.428;2023-05-14T01:42:37;11.30;99.90
20744;DHT22;56303;52.160;-0.428;2023-05-14T01:45:04;11.30;99.90
20744;DHT22;56303;52.160;-0.428;2023-05-14T01:47:31;11.10;99.90
20744;DHT22;56303;52.160;-0.428;2023-05-14T01:49:58;11.10;99.90
20744;DHT22;56303;52.160;-0.428;2023-05-14T01:52:25;10.90;99.90
20744;DHT22;56303;52.160;-0.428;2023-05-14T01:54:52;10.90;99.90
20744;DHT22;56303;52.160;-0.428;2023-05-14T01:57:18;11.00;99.90
20744;DHT22;56303;52.160;-0.428;2023-05-14T01:59:46;10.90;99.90
20744;DHT22;56303;52.160;-0.428;2023-05-14T02:02:13;10.90;99.90
20744;DHT22;56303;52.160;-0.428;2023-05-14T02:04:40;10.90;99.90
20744;DHT22;56303;52.160;-0.428;2023-05-14T02:07:07;10.90;99.90
20744;DHT22;56303;52.160;-0.428;2023-05-14T02:09:34;11.40;99.90
20744;DHT22;56303;52.160;-0.428;2023-05-14T02:12:00;11.40;99.90
20744;DHT22;56303;52.160;-0.428;2023-05-14T02:14:27;11.30;99.90
20744;DHT22;56303;52.160;-0.428;2023-05-14T02:16:54;11.20;99.90
20744;DHT22;56303;52.160;-0.428;2023-05-14T02:19:21;11.10;99.90
20744;DHT22;56303;52.160;-0.428;2023-05-14T02:21:49;11.20;99.90
20744;DHT22;56303;52.160;-0.428;2023-05-14T02:24:16;11.40;99.90
20744;DHT22;56303;52.160;-0.428;2023-05-14T02:26:42;11.60;99.90
20744;DHT22;56303;52.160;-0.428;2023-05-14T02:29:09;11.80;99.90
20744;DHT22;56303;52.160;-0.428;2023-05-14T02:31:37;11.90;99.90
20744;DHT22;56303;52.160;-0.428;2023-05-14T02:34:04;11.90;99.90
20744;DHT22;56303;52.160;-0.428;2023-05-14T02:36:32;11.80;99.90
20744;DHT22;56303;52.160;-0.428;2023-05-14T02:38:59;11.50;99.90
20744;DHT22;56303;52.160;-0.428;2023-05-14T02:41:30;11.30;99.90
20744;DHT22;56303;52.160;-0.428;2023-05-14T02:43:57;10.90;99.90
20744;DHT22;56303;52.160;-0.428;2023-05-14T02:46:23;10.90;99.90
20744;DHT22;56303;52.160;-0.428;2023-05-14T02:48:51;11.10;99.90
20744;DHT22;56303;52.160;-0.428;2023-05-14T02:51:19;11.40;99.90
20744;DHT22;56303;52.160;-0.428;2023-05-14T02:53:49;11.10;99.90
20744;DHT22;56303;52.160;-0.428;2023-05-14T02:56:15;11.40;99.90
20744;DHT22;56303;52.160;-0.428;2023-05-14T02:58:42;11.10;99.90
20744;DHT22;56303;52.160;-0.428;2023-05-14T03:01:09;10.90;99.90
20744;DHT22;56303;52.160;-0.428;2023-05-14T03:03:36;11.10;99.90
20744;DHT22;56303;52.160;-0.428;2023-05-14T03:06:04;11.50;99.90
20744;DHT22;56303;52.160;-0.428;2023-05-14T03:08:31;11.10;99.90
20744;DHT22;56303;52.160;-0.428;2023-05-14T03:10:58;11.30;99.90
20744;DHT22;56303;52.160;-0.428;2023-05-14T03:13:25;11.50;99.90
20744;DHT22;56303;52.160;-0.428;2023-05-14T03:15:51;10.90;99.90
20744;DHT22;56303;52.160;-0.428;2023-05-14T03:18:22;10.80;99.90
20744;DHT22;56303;52.160;-0.428;2023-05-14T03:20:49;11.00;99.90
20744;DHT22;56303;52.160;-0.428;2023-05-14T03:23:16;10.90;99.90
20744;DHT22;56303;52.160;-0.428;2023-05-14T03:25:42;11.00;99.90
20744;DHT22;56303;52.160;-0.428;2023-05-14T03:28:09;11.20;99.90
20744;DHT22;56303;52.160;-0.428;2023-05-14T03:30:36;11.20;99.90
20744;DHT22;56303;52.160;-0.428;2023-05-14T03:33:03;11.00;99.90
20744;DHT22;56303;52.160;-0.428;2023-05-14T03:35:30;11.60;99.90
20744;DHT22;56303;52.160;-0.428;2023-05-14T03:37:57;11.40;99.90
20744;DHT22;56303;52.160;-0.428;2023-05-14T03:40:25;11.50;99.90
20744;DHT22;56303;52.160;-0.428;2023-05-14T03:42:52;11.40;99.90
20744;DHT22;56303;52.160;-0.428;2023-05-14T03:45:18;11.40;99.90
20744;DHT22;56303;52.160;-0.428;2023-05-14T03:47:45;11.30;99.90
20744;DHT22;56303;52.160;-0.428;2023-05-14T03:50:12;11.10;99.90
20744;DHT22;56303;52.160;-0.428;2023-05-14T03:52:39;10.90;99.90
20744;DHT22;56303;52.160;-0.428;2023-05-14T03:55:06;10.80;99.90
20744;DHT22;56303;52.160;-0.428;2023-05-14T03:57:33;11.10;99.90
20744;DHT22;56303;52.160;-0.428;2023-05-14T04:00:00;11.20;99.90
20744;DHT22;56303;52.160;-0.428;2023-05-14T04:02:26;11.50;99.90
20744;DHT22;56303;52.160;-0.428;2023-05-14T04:04:53;11.40;99.90
20744;DHT22;56303;52.160;-0.428;2023-05-14T04:07:20;11.20;99.90
20744;DHT22;56303;52.160;-0.428;2023-05-14T04:09:47;10.70;99.90
20744;DHT22;56303;52.160;-0.428;2023-05-14T04:12:14;10.60;99.90
20744;DHT22;56303;52.160;-0.428;2023-05-14T04:14:41;10.60;99.90
20744;DHT22;56303;52.160;-0.428;2023-05-14T04:17:08;10.70;99.90
20744;DHT22;56303;52.160;-0.428;2023-05-14T04:19:34;11.00;99.90
20744;DHT22;56303;52.160;-0.428;2023-05-14T04:22:02;11.10;99.90
20744;DHT22;56303;52.160;-0.428;2023-05-14T04:24:29;11.20;99.90
20744;DHT22;56303;52.160;-0.428;2023-05-14T04:26:56;11.00;99.90
20744;DHT22;56303;52.160;-0.428;2023-05-14T04:29:23;10.70;99.90
20744;DHT22;56303;52.160;-0.428;2023-05-14T04:31:50;10.70;99.90
20744;DHT22;56303;52.160;-0.428;2023-05-14T04:34:17;10.60;99.90
20744;DHT22;56303;52.160;-0.428;2023-05-14T04:36:43;10.40;99.90
20744;DHT22;56303;52.160;-0.428;2023-05-14T04:39:10;10.40;99.90
20744;DHT22;56303;52.160;-0.428;2023-05-14T04:41:40;10.40;99.90
20744;DHT22;56303;52.160;-0.428;2023-05-14T04:44:08;10.50;99.90
20744;DHT22;56303;52.160;-0.428;2023-05-14T04:46:34;12.20;99.90
20744;DHT22;56303;52.160;-0.428;2023-05-14T04:49:01;11.00;99.90
20744;DHT22;56303;52.160;-0.428;2023-05-14T04:51:28;11.00;99.90
20744;DHT22;56303;52.160;-0.428;2023-05-14T04:53:55;11.00;99.90
20744;DHT22;56303;52.160;-0.428;2023-05-14T04:56:22;11.00;99.90
20744;DHT22;56303;52.160;-0.428;2023-05-14T04:58:48;10.60;99.90
20744;DHT22;56303;52.160;-0.428;2023-05-14T05:01:15;10.70;99.90
20744;DHT22;56303;52.160;-0.428;2023-05-14T05:03:42;10.90;99.90
20744;DHT22;56303;52.160;-0.428;2023-05-14T05:06:09;10.90;99.90
20744;DHT22;56303;52.160;-0.428;2023-05-14T05:08:36;10.90;99.90
20744;DHT22;56303;52.160;-0.428;2023-05-14T05:11:03;11.10;99.90
20744;DHT22;56303;52.160;-0.428;2023-05-14T05:13:30;10.90;99.90
20744;DHT22;56303;52.160;-0.428;2023-05-14T05:15:57;11.30;99.90
20744;DHT22;56303;52.160;-0.428;2023-05-14T05:18:24;11.30;99.90
20744;DHT22;56303;52.160;-0.428;2023-05-14T05:20:51;11.10;99.90
20744;DHT22;56303;52.160;-0.428;2023-05-14T05:23:18;11.00;99.90
20744;DHT22;56303;52.160;-0.428;2023-05-14T05:25:45;10.90;99.90
20744;DHT22;56303;52.160;-0.428;2023-05-14T05:28:12;10.80;99.90
20744;DHT22;56303;52.160;-0.428;2023-05-14T05:30:39;10.60;99.90
20744;DHT22;56303;52.160;-0.428;2023-05-14T05:33:06;9.10;99.90
20744;DHT22;56303;52.160;-0.428;2023-05-14T05:35:33;10.10;99.90
20744;DHT22;56303;52.160;-0.428;2023-05-14T05:38:00;10.10;99.90
20744;DHT22;56303;52.160;-0.428;2023-05-14T05:40:27;10.20;99.90
20744;DHT22;56303;52.160;-0.428;2023-05-14T05:42:54;10.30;99.90
20744;DHT22;56303;52.160;-0.428;2023-05-14T05:45:21;10.50;99.90
20744;DHT22;56303;52.160;-0.428;2023-05-14T05:47:48;10.20;99.90
20744;DHT22;56303;52.160;-0.428;2023-05-14T05:50:15;10.00;99.90
20744;DHT22;56303;52.160;-0.428;2023-05-14T05:52:44;10.20;99.90
20744;DHT22;56303;52.160;-0.428;2023-05-14T05:55:11;10.50;99.90
20744;DHT22;56303;52.160;-0.428;2023-05-14T05:57:38;10.50;99.90
20744;DHT22;56303;52.160;-0.428;2023-05-14T06:00:05;10.40;99.90
20744;DHT22;56303;52.160;-0.428;2023-05-14T06:02:42;10.60;99.90
20744;DHT22;56303;52.160;-0.428;2023-05-14T06:05:10;10.60;99.90
20744;DHT22;56303;52.160;-0.428;2023-05-14T06:07:37;10.10;99.90
20744;DHT22;56303;52.160;-0.428;2023-05-14T06:10:04;10.20;99.90
20744;DHT22;56303;52.160;-0.428;2023-05-14T06:12:32;10.00;99.90
20744;DHT22;56303;52.160;-0.428;2023-05-14T06:14:59;9.80;99.90
20744;DHT22;56303;52.160;-0.428;2023-05-14T06:17:26;10.00;99.90
20744;DHT22;56303;52.160;-0.428;2023-05-14T06:19:52;10.50;99.90
20744;DHT22;56303;52.160;-0.428;2023-05-14T06:22:19;10.00;99.90
20744;DHT22;56303;52.160;-0.428;2023-05-14T06:24:47;11.10;99.90
20744;DHT22;56303;52.160;-0.428;2023-05-14T06:27:13;11.00;99.90
20744;DHT22;56303;52.160;-0.428;2023-05-14T06:29:40;11.20;99.90
20744;DHT22;56303;52.160;-0.428;2023-05-14T06:32:07;11.10;99.90
20744;DHT22;56303;52.160;-0.428;2023-05-14T06:34:34;11.60;99.90
20744;DHT22;56303;52.160;-0.428;2023-05-14T06:37:01;11.70;99.90
20744;DHT22;56303;52.160;-0.428;2023-05-14T06:39:29;11.60;99.90
20744;DHT22;56303;52.160;-0.428;2023-05-14T06:41:56;11.50;99.90
20744;DHT22;56303;52.160;-0.428;2023-05-14T06:44:23;11.30;99.90
20744;DHT22;56303;52.160;-0.428;2023-05-14T06:46:50;11.40;99.90
20744;DHT22;56303;52.160;-0.428;2023-05-14T06:49:17;11.60;99.90
20744;DHT22;56303;52.160;-0.428;2023-05-14T06:51:44;11.60;99.90
20744;DHT22;56303;52.160;-0.428;2023-05-14T06:54:12;11.80;99.90
20744;DHT22;56303;52.160;-0.428;2023-05-14T06:56:39;11.90;99.90
20744;DHT22;56303;52.160;-0.428;2023-05-14T06:59:05;11.90;99.90
20744;DHT22;56303;52.160;-0.428;2023-05-14T07:01:32;12.00;99.90
20744;DHT22;56303;52.160;-0.428;2023-05-14T07:03:59;12.20;99.90
20744;DHT22;56303;52.160;-0.428;2023-05-14T07:06:26;12.00;99.90
20744;DHT22;56303;52.160;-0.428;2023-05-14T07:08:53;11.70;99.90
20744;DHT22;56303;52.160;-0.428;2023-05-14T07:11:20;11.40;99.90
20744;DHT22;56303;52.160;-0.428;2023-05-14T07:13:47;11.50;99.90
20744;DHT22;56303;52.160;-0.428;2023-05-14T07:16:14;11.70;99.90
20744;DHT22;56303;52.160;-0.428;2023-05-14T07:18:41;12.00;99.90
20744;DHT22;56303;52.160;-0.428;2023-05-14T07:21:11;12.20;99.90
20744;DHT22;56303;52.160;-0.428;2023-05-14T07:23:37;12.20;99.90
20744;DHT22;56303;52.160;-0.428;2023-05-14T07:26:05;12.20;99.90
20744;DHT22;56303;52.160;-0.428;2023-05-14T07:28:32;12.10;99.90
20744;DHT22;56303;52.160;-0.428;2023-05-14T07:30:59;13.50;99.90
20744;DHT22;56303;52.160;-0.428;2023-05-14T07:33:28;12.40;99.90
20744;DHT22;56303;52.160;-0.428;2023-05-14T07:35:55;12.20;99.90
20744;DHT22;56303;52.160;-0.428;2023-05-14T07:38:21;12.10;99.90
20744;DHT22;56303;52.160;-0.428;2023-05-14T07:40:48;12.20;99.90
20744;DHT22;56303;52.160;-0.428;2023-05-14T07:43:15;12.40;99.90
20744;DHT22;56303;52.160;-0.428;2023-05-14T07:45:42;12.40;99.90
20744;DHT22;56303;52.160;-0.428;2023-05-14T07:48:09;12.40;99.90
20744;DHT22;56303;52.160;-0.428;2023-05-14T07:50:36;12.50;99.90
20744;DHT22;56303;52.160;-0.428;2023-05-14T07:53:03;12.40;99.90
20744;DHT22;56303;52.160;-0.428;2023-05-14T07:55:30;12.40;99.90
20744;DHT22;56303;52.160;-0.428;2023-05-14T07:57:57;12.70;99.90
20744;DHT22;56303;52.160;-0.428;2023-05-14T08:00:24;12.60;99.90
20744;DHT22;56303;52.160;-0.428;2023-05-14T08:02:51;12.60;99.90
20744;DHT22;56303;52.160;-0.428;2023-05-14T08:05:18;12.60;99.90
20744;DHT22;56303;52.160;-0.428;2023-05-14T08:07:46;12.40;99.90
20744;DHT22;56303;52.160;-0.428;2023-05-14T08:10:14;12.50;99.90
20744;DHT22;56303;52.160;-0.428;2023-05-14T08:12:41;12.60;99.90
20744;DHT22;56303;52.160;-0.428;2023-05-14T08:15:08;13.30;99.90
20744;DHT22;56303;52.160;-0.428;2023-05-14T08:17:35;13.50;99.90
20744;DHT22;56303;52.160;-0.428;2023-05-14T08:20:02;13.50;99.90
20744;DHT22;56303;52.160;-0.428;2023-05-14T08:22:32;13.60;99.90
20744;DHT22;56303;52.160;-0.428;2023-05-14T08:24:58;13.50;99.90
20744;DHT22;56303;52.160;-0.428;2023-05-14T08:27:27;13.50;99.90
20744;DHT22;56303;52.160;-0.428;2023-05-14T08:29:53;13.20;99.90
20744;DHT22;56303;52.160;-0.428;2023-05-14T08:32:20;13.20;99.90
20744;DHT22;56303;52.160;-0.428;2023-05-14T08:34:50;13.30;99.90
20744;DHT22;56303;52.160;-0.428;2023-05-14T08:37:17;13.40;99.90
20744;DHT22;56303;52.160;-0.428;2023-05-14T08:39:44;13.10;99.90
20744;DHT22;56303;52.160;-0.428;2023-05-14T08:42:14;13.30;99.90
20744;DHT22;56303;52.160;-0.428;2023-05-14T08:44:56;13.40;99.90
20744;DHT22;56303;52.160;-0.428;2023-05-14T08:47:24;14.10;99.90
20744;DHT22;56303;52.160;-0.428;2023-05-14T08:50:00;14.00;99.90
20744;DHT22;56303;52.160;-0.428;2023-05-14T08:52:28;14.20;99.90
20744;DHT22;56303;52.160;-0.428;2023-05-14T08:54:58;14.00;99.90
20744;DHT22;56303;52.160;-0.428;2023-05-14T08:57:27;13.90;99.90
20744;DHT22;56303;52.160;-0.428;2023-05-14T08:59:55;13.60;99.90
20744;DHT22;56303;52.160;-0.428;2023-05-14T09:02:26;13.60;99.90
20744;DHT22;56303;52.160;-0.428;2023-05-14T09:04:55;13.90;99.90
20744;DHT22;56303;52.160;-0.428;2023-05-14T09:07:22;14.00;99.90
20744;DHT22;56303;52.160;-0.428;2023-05-14T09:09:50;14.60;99.90
20744;DHT22;56303;52.160;-0.428;2023-05-14T09:12:18;14.20;99.90
20744;DHT22;56303;52.160;-0.428;2023-05-14T09:14:45;14.00;99.90
20744;DHT22;56303;52.160;-0.428;2023-05-14T09:17:12;13.80;99.90
20744;DHT22;56303;52.160;-0.428;2023-05-14T09:19:40;13.90;99.90
20744;DHT22;56303;52.160;-0.428;2023-05-14T09:22:10;14.00;99.90
20744;DHT22;56303;52.160;-0.428;2023-05-14T09:24:37;13.80;99.90
20744;DHT22;56303;52.160;-0.428;2023-05-14T09:27:05;14.10;99.90
20744;DHT22;56303;52.160;-0.428;2023-05-14T09:29:32;14.60;99.90
20744;DHT22;56303;52.160;-0.428;2023-05-14T09:32:00;14.30;99.90
20744;DHT22;56303;52.160;-0.428;2023-05-14T09:34:33;14.30;99.90
20744;DHT22;56303;52.160;-0.428;2023-05-14T09:37:02;14.70;99.90
20744;DHT22;56303;52.160;-0.428;2023-05-14T09:39:30;15.40;99.90
20744;DHT22;56303;52.160;-0.428;2023-05-14T09:41:57;15.40;99.90
20744;DHT22;56303;52.160;-0.428;2023-05-14T09:44:24;15.20;99.90
20744;DHT22;56303;52.160;-0.428;2023-05-14T09:46:52;15.10;99.90
20744;DHT22;56303;52.160;-0.428;2023-05-14T09:49:19;15.00;99.90
20744;DHT22;56303;52.160;-0.428;2023-05-14T09:51:48;15.40;99.90
20744;DHT22;56303;52.160;-0.428;2023-05-14T09:54:15;15.00;99.90
20744;DHT22;56303;52.160;-0.428;2023-05-14T09:56:42;15.50;99.90
20744;DHT22;56303;52.160;-0.428;2023-05-14T09:59:10;15.50;99.90
20744;DHT22;56303;52.160;-0.428;2023-05-14T10:01:36;15.50;99.90
20744;DHT22;56303;52.160;-0.428;2023-05-14T10:04:06;15.20;99.90
20744;DHT22;56303;52.160;-0.428;2023-05-14T10:06:36;15.20;99.90
20744;DHT22;56303;52.160;-0.428;2023-05-14T10:09:06;15.40;99.90
20744;DHT22;56303;52.160;-0.428;2023-05-14T10:11:37;15.60;99.90
20744;DHT22;56303;52.160;-0.428;2023-05-14T10:14:08;15.80;99.90
20744;DHT22;56303;52.160;-0.428;2023-05-14T10:16:45;15.80;99.90
20744;DHT22;56303;52.160;-0.428;2023-05-14T10:19:15;15.60;99.90
20744;DHT22;56303;52.160;-0.428;2023-05-14T10:21:55;15.70;99.90
20744;DHT22;56303;52.160;-0.428;2023-05-14T10:24:23;16.60;99.90
20744;DHT22;56303;52.160;-0.428;2023-05-14T10:26:50;16.40;99.90
20744;DHT22;56303;52.160;-0.428;2023-05-14T10:29:18;16.80;99.90
20744;DHT22;56303;52.160;-0.428;2023-05-14T10:31:52;16.60;99.90
20744;DHT22;56303;52.160;-0.428;2023-05-14T10:34:36;16.50;99.90
20744;DHT22;56303;52.160;-0.428;2023-05-14T10:37:09;16.70;99.90
20744;DHT22;56303;52.160;-0.428;2023-05-14T10:39:40;16.60;99.90
20744;DHT22;56303;52.160;-0.428;2023-05-14T10:42:10;16.90;99.90
20744;DHT22;56303;52.160;-0.428;2023-05-14T10:44:46;16.90;99.90
20744;DHT22;56303;52.160;-0.428;2023-05-14T10:47:14;17.20;99.90
20744;DHT22;56303;52.160;-0.428;2023-05-14T10:49:43;17.00;99.90
20744;DHT22;56303;52.160;-0.428;2023-05-14T10:52:11;16.90;99.90
20744;DHT22;56303;52.160;-0.428;2023-05-14T10:54:38;17.50;99.90
20744;DHT22;56303;52.160;-0.428;2023-05-14T10:57:10;17.40;99.90
20744;DHT22;56303;52.160;-0.428;2023-05-14T10:59:40;17.70;99.90
20744;DHT22;56303;52.160;-0.428;2023-05-14T11:02:28;18.20;99.90
20744;DHT22;56303;52.160;-0.428;2023-05-14T11:07:35;18.00;99.90
20744;DHT22;56303;52.160;-0.428;2023-05-14T11:10:05;18.10;99.90
20744;DHT22;56303;52.160;-0.428;2023-05-14T11:12:34;18.00;99.90
20744;DHT22;56303;52.160;-0.428;2023-05-14T11:15:07;18.50;99.90
20744;DHT22;56303;52.160;-0.428;2023-05-14T11:17:40;19.00;99.90
20744;DHT22;56303;52.160;-0.428;2023-05-14T11:20:07;18.90;99.90
20744;DHT22;56303;52.160;-0.428;2023-05-14T11:22:36;18.10;99.90
20744;DHT22;56303;52.160;-0.428;2023-05-14T11:25:03;18.20;99.90
20744;DHT22;56303;52.160;-0.428;2023-05-14T11:27:33;18.60;99.90
20744;DHT22;56303;52.160;-0.428;2023-05-14T11:30:00;19.00;99.90
20744;DHT22;56303;52.160;-0.428;2023-05-14T11:32:27;18.50;99.90
20744;DHT22;56303;52.160;-0.428;2023-05-14T11:34:54;19.00;99.90
20744;DHT22;56303;52.160;-0.428;2023-05-14T11:37:21;19.90;99.90
20744;DHT22;56303;52.160;-0.428;2023-05-14T11:39:52;20.10;99.90
20744;DHT22;56303;52.160;-0.428;2023-05-14T11:42:20;20.10;99.90
20744;DHT22;56303;52.160;-0.428;2023-05-14T11:44:49;20.00;99.90
20744;DHT22;56303;52.160;-0.428;2023-05-14T11:47:19;20.00;99.90
20744;DHT22;56303;52.160;-0.428;2023-05-14T11:49:47;20.60;99.90
20744;DHT22;56303;52.160;-0.428;2023-05-14T11:52:15;21.20;99.90
20744;DHT22;56303;52.160;-0.428;2023-05-14T11:54:42;20.80;99.90
20744;DHT22;56303;52.160;-0.428;2023-05-14T11:57:10;21.90;99.90
20744;DHT22;56303;52.160;-0.428;2023-05-14T11:59:38;21.00;99.90
20744;DHT22;56303;52.160;-0.428;2023-05-14T12:02:13;21.30;99.90
20744;DHT22;56303;52.160;-0.428;2023-05-14T12:04:45;21.00;99.90
20744;DHT22;56303;52.160;-0.428;2023-05-14T12:07:15;21.00;99.90
20744;DHT22;56303;52.160;-0.428;2023-05-14T12:09:46;21.60;99.90
20744;DHT22;56303;52.160;-0.428;2023-05-14T12:12:19;21.20;99.90
20744;DHT22;56303;52.160;-0.428;2023-05-14T12:14:48;21.70;99.90
20744;DHT22;56303;52.160;-0.428;2023-05-14T12:17:22;22.30;99.90
20744;DHT22;56303;52.160;-0.428;2023-05-14T12:19:50;23.00;99.90
20744;DHT22;56303;52.160;-0.428;2023-05-14T12:22:20;23.30;99.90
20744;DHT22;56303;52.160;-0.428;2023-05-14T12:24:58;22.60;99.90
20744;DHT22;56303;52.160;-0.428;2023-05-14T12:27:27;22.30;99.90
20744;DHT22;56303;52.160;-0.428;2023-05-14T12:29:59;22.20;99.90
20744;DHT22;56303;52.160;-0.428;2023-05-14T12:32:38;22.00;99.90
20744;DHT22;56303;52.160;-0.428;2023-05-14T12:35:09;22.30;99.90
20744;DHT22;56303;52.160;-0.428;2023-05-14T12:37:37;22.70;99.90
20744;DHT22;56303;52.160;-0.428;2023-05-14T12:40:05;23.10;99.90
20744;DHT22;56303;52.160;-0.428;2023-05-14T12:42:35;23.90;99.90
20744;DHT22;56303;52.160;-0.428;2023-05-14T12:45:02;24.10;99.90
20744;DHT22;56303;52.160;-0.428;2023-05-14T12:47:33;24.30;99.90
20744;DHT22;56303;52.160;-0.428;2023-05-14T12:50:00;24.20;99.90
20744;DHT22;56303;52.160;-0.428;2023-05-14T12:52:27;24.10;99.90
20744;DHT22;56303;52.160;-0.428;2023-05-14T12:55:04;24.30;99.90
20744;DHT22;56303;52.160;-0.428;2023-05-14T12:57:31;24.80;99.90
20744;DHT22;56303;52.160;-0.428;2023-05-14T13:00:01;25.50;99.90
20744;DHT22;56303;52.160;-0.428;2023-05-14T13:02:59;25.00;99.90
20744;DHT22;56303;52.160;-0.428;2023-05-14T13:05:26;25.20;99.90
20744;DHT22;56303;52.160;-0.428;2023-05-14T13:07:53;25.30;99.90
20744;DHT22;56303;52.160;-0.428;2023-05-14T13:10:20;25.30;99.90
20744;DHT22;56303;52.160;-0.428;2023-05-14T13:12:46;25.40;99.90
20744;DHT22;56303;52.160;-0.428;2023-05-14T13:15:13;25.90;99.90
20744;DHT22;56303;52.160;-0.428;2023-05-14T13:17:40;25.80;99.90
20744;DHT22;56303;52.160;-0.428;2023-05-14T13:20:07;26.00;99.90
20744;DHT22;56303;52.160;-0.428;2023-05-14T13:22:34;26.30;99.90
20744;DHT22;56303;52.160;-0.428;2023-05-14T13:25:02;26.10;99.90
20744;DHT22;56303;52.160;-0.428;2023-05-14T13:27:29;26.30;99.90
20744;DHT22;56303;52.160;-0.428;2023-05-14T14:26:08;21.60;99.90
20744;DHT22;56303;52.160;-0.428;2023-05-14T14:28:34;24.20;99.90
20744;DHT22;56303;52.160;-0.428;2023-05-14T14:31:02;24.20;99.90
20744;DHT22;56303;52.160;-0.428;2023-05-14T14:33:28;24.10;99.90
20744;DHT22;56303;52.160;-0.428;2023-05-14T14:35:55;23.90;99.90
20744;DHT22;56303;52.160;-0.428;2023-05-14T14:38:23;24.10;99.90
20744;DHT22;56303;52.160;-0.428;2023-05-14T14:40:50;24.10;99.90
20744;DHT22;56303;52.160;-0.428;2023-05-14T14:43:16;24.20;99.90
20744;DHT22;56303;52.160;-0.428;2023-05-14T14:45:44;23.90;99.90
20744;DHT22;56303;52.160;-0.428;2023-05-14T14:48:34;24.40;99.90
20744;DHT22;56303;52.160;-0.428;2023-05-14T14:51:08;24.30;99.90
20744;DHT22;56303;52.160;-0.428;2023-05-14T14:53:35;24.10;99.90
20744;DHT22;56303;52.160;-0.428;2023-05-14T14:56:03;24.40;99.90
20744;DHT22;56303;52.160;-0.428;2023-05-14T14:58:30;24.90;99.90
20744;DHT22;56303;52.160;-0.428;2023-05-14T15:00:57;24.80;99.90
20744;DHT22;56303;52.160;-0.428;2023-05-14T15:03:24;24.80;99.90
20744;DHT22;56303;52.160;-0.428;2023-05-14T15:05:52;25.10;99.90
20744;DHT22;56303;52.160;-0.428;2023-05-14T15:08:22;25.00;99.90
20744;DHT22;56303;52.160;-0.428;2023-05-14T15:10:50;25.50;99.90
20744;DHT22;56303;52.160;-0.428;2023-05-14T15:13:17;25.90;99.90
20744;DHT22;56303;52.160;-0.428;2023-05-14T15:15:44;26.20;99.90
20744;DHT22;56303;52.160;-0.428;2023-05-14T15:18:11;26.50;99.90
20744;DHT22;56303;52.160;-0.428;2023-05-14T15:20:38;27.20;99.90
20744;DHT22;56303;52.160;-0.428;2023-05-14T15:23:05;27.60;99.90
20744;DHT22;56303;52.160;-0.428;2023-05-14T15:25:32;27.20;99.90
20744;DHT22;56303;52.160;-0.428;2023-05-14T15:27:59;27.10;99.90
20744;DHT22;56303;52.160;-0.428;2023-05-14T15:30:26;27.50;99.90
20744;DHT22;56303;52.160;-0.428;2023-05-14T15:32:53;27.90;99.90
20744;DHT22;56303;52.160;-0.428;2023-05-14T15:35:21;27.70;99.90
20744;DHT22;56303;52.160;-0.428;2023-05-14T15:37:48;27.20;99.80
20744;DHT22;56303;52.160;-0.428;2023-05-14T15:40:15;26.60;99.90
20744;DHT22;56303;52.160;-0.428;2023-05-14T15:42:42;26.40;99.90
20744;DHT22;56303;52.160;-0.428;2023-05-14T15:45:11;26.80;99.90
20744;DHT22;56303;52.160;-0.428;2023-05-14T15:47:41;27.10;99.80
20744;DHT22;56303;52.160;-0.428;2023-05-14T15:50:10;26.80;99.90
20744;DHT22;56303;52.160;-0.428;2023-05-14T15:52:37;26.60;99.90
20744;DHT22;56303;52.160;-0.428;2023-05-14T15:55:05;25.70;99.90
20744;DHT22;56303;52.160;-0.428;2023-05-14T15:57:32;25.30;99.90
20744;DHT22;56303;52.160;-0.428;2023-05-14T16:00:00;25.10;99.90
20744;DHT22;56303;52.160;-0.428;2023-05-14T16:02:27;24.20;99.90
20744;DHT22;56303;52.160;-0.428;2023-05-14T16:04:56;23.60;99.90
20744;DHT22;56303;52.160;-0.428;2023-05-14T16:07:23;23.50;99.90
20744;DHT22;56303;52.160;-0.428;2023-05-14T16:09:50;23.70;99.90
20744;DHT22;56303;52.160;-0.428;2023-05-14T16:12:17;23.70;99.90
20744;DHT22;56303;52.160;-0.428;2023-05-14T16:14:45;23.70;99.90
20744;DHT22;56303;52.160;-0.428;2023-05-14T16:17:12;23.90;99.90
20744;DHT22;56303;52.160;-0.428;2023-05-14T16:19:39;23.70;99.90
20744;DHT22;56303;52.160;-0.428;2023-05-14T16:22:06;23.40;99.90
20744;DHT22;56303;52.160;-0.428;2023-05-14T16:24:33;23.00;99.90